createdAt,value
2023-03-02T00:00:16.894Z,29.70
2023-03-02T00:05:18.833Z,33.50
2023-03-02T00:10:21.180Z,34.10
2023-03-02T00:15:23.376Z,33.60
2023-03-02T00:20:25.181Z,30.95
2023-03-02T00:25:27.002Z,32.28
2023-03-02T00:30:29.162Z,39.63
2023-03-02T00:35:30.985Z,40.38
2023-03-02T00:40:33.580Z,31.83
2023-03-02T00:45:35.456Z,31.00
2023-03-02T00:50:40.986Z,34.47
2023-03-02T00:55:42.745Z,34.28
2023-03-02T01:00:44.905Z,37.60
2023-03-02T01:05:47.063Z,36.67
2023-03-02T01:10:49.088Z,34.15
2023-03-02T01:16:00.427Z,34.85
2023-03-02T01:21:08.014Z,35.90
2023-03-02T01:26:09.925Z,32.35
2023-03-02T01:31:12.011Z,35.80
2023-03-02T01:36:13.936Z,37.20
2023-03-02T01:41:16.114Z,32.78
2023-03-02T01:46:25.619Z,34.53
2023-03-02T01:51:30.640Z,34.33
2023-03-02T01:56:37.062Z,32.78
2023-03-02T02:01:43.120Z,38.15
2023-03-02T02:06:50.749Z,34.25
2023-03-02T02:11:53.124Z,30.42
2023-03-02T02:16:55.026Z,37.13
2023-03-02T02:21:57.075Z,31.88
2023-03-02T02:26:59.101Z,37.15
2023-03-02T02:32:02.687Z,36.03
2023-03-02T02:37:13.454Z,34.47
2023-03-02T02:42:34.551Z,34.27
2023-03-02T02:47:36.476Z,37.58
2023-03-02T02:52:40.972Z,34.88
2023-03-02T02:57:43.337Z,32.90
2023-03-02T03:02:50.682Z,32.55
2023-03-02T03:07:53.608Z,35.42
2023-03-02T03:12:56.461Z,32.67
2023-03-02T03:17:59.374Z,32.33
2023-03-02T03:23:01.455Z,35.58
2023-03-02T03:28:04.105Z,31.70
2023-03-02T03:33:06.005Z,35.55
2023-03-02T03:38:08.977Z,31.02
2023-03-02T03:43:13.827Z,33.65
2023-03-02T03:48:16.224Z,35.83
2023-03-02T03:53:18.041Z,35.47
2023-03-02T03:58:20.343Z,32.35
2023-03-02T04:03:22.707Z,36.20
2023-03-02T04:08:24.692Z,32.45
2023-03-02T04:13:26.698Z,29.83
2023-03-02T04:18:29.107Z,29.90
2023-03-02T04:23:31.358Z,32.40
2023-03-02T04:28:34.014Z,31.58
2023-03-02T04:33:35.956Z,42.10
2023-03-02T04:38:40.261Z,36.17
2023-03-02T04:43:42.252Z,37.70
2023-03-02T04:48:44.641Z,40.95
2023-03-02T04:53:47.946Z,37.60
2023-03-02T04:58:50.400Z,33.88
2023-03-02T05:03:52.855Z,37.90
2023-03-02T05:08:54.734Z,40.70
2023-03-02T05:14:00.023Z,37.75
2023-03-02T05:19:06.188Z,36.53
2023-03-02T05:24:08.517Z,36.15
2023-03-02T05:29:10.401Z,37.47
2023-03-02T05:34:15.190Z,35.45
2023-03-02T05:39:16.953Z,28.75
2023-03-02T05:44:18.916Z,33.38
2023-03-02T05:49:20.663Z,33.45
2023-03-02T05:54:22.505Z,30.88
2023-03-02T05:59:24.575Z,37.03
2023-03-02T06:04:26.456Z,33.85
2023-03-02T06:09:28.254Z,31.30
2023-03-02T06:14:30.115Z,29.85
2023-03-02T06:19:32.164Z,33.03
2023-03-02T06:24:34.077Z,36.97
2023-03-02T06:29:36.053Z,33.42
2023-03-02T06:34:38.091Z,37.33
2023-03-02T06:39:40.094Z,34.28
2023-03-02T06:44:41.995Z,34.15
2023-03-02T06:49:44.037Z,37.20
2023-03-02T06:54:45.796Z,33.67
2023-03-02T06:59:47.840Z,35.53
2023-03-02T07:04:50.788Z,38.22
2023-03-02T07:09:52.593Z,37.72
2023-03-02T07:14:54.350Z,35.80
2023-03-02T07:19:56.172Z,41.63
2023-03-02T07:24:58.303Z,48.03
2023-03-02T07:30:00.112Z,49.42
2023-03-02T07:35:02.237Z,48.38
2023-03-02T07:40:05.047Z,52.63
2023-03-02T07:45:07.752Z,52.53
2023-03-02T07:50:10.238Z,58.65
2023-03-02T07:55:12.126Z,50.60
2023-03-02T08:00:14.901Z,45.20
2023-03-02T08:05:16.989Z,33.70
2023-03-02T08:10:18.993Z,30.98
2023-03-02T08:15:20.997Z,30.65
2023-03-02T08:20:22.985Z,30.95
2023-03-02T08:25:24.862Z,30.75
2023-03-02T08:30:26.722Z,32.47
2023-03-02T08:35:28.601Z,29.23
2023-03-02T08:40:31.202Z,31.48
2023-03-02T08:45:34.904Z,26.77
2023-03-02T08:50:36.739Z,28.40
2023-03-02T08:55:38.517Z,30.65
2023-03-02T09:00:40.400Z,27.15
2023-03-02T09:05:42.304Z,28.45
2023-03-02T09:10:44.080Z,28.63
2023-03-02T09:15:46.145Z,32.75
2023-03-02T09:20:54.072Z,27.48
2023-03-02T09:25:57.311Z,23.88
2023-03-02T09:31:00.894Z,26.60
2023-03-02T09:36:11.787Z,28.23
2023-03-02T09:41:19.913Z,26.35
2023-03-02T09:47:06.788Z,28.90
2023-03-02T09:52:36.621Z,24.58
2023-03-02T09:57:39.857Z,23.77
2023-03-02T10:03:00.494Z,26.23
2023-03-02T10:08:04.469Z,22.80
2023-03-02T10:13:14.392Z,28.67
2023-03-02T10:18:25.136Z,24.60
2023-03-02T10:23:36.149Z,26.33
2023-03-02T10:28:50.401Z,24.95
2023-03-02T10:33:52.478Z,20.73
2023-03-02T10:38:55.904Z,23.45
2023-03-02T10:44:06.316Z,20.27
2023-03-02T10:49:42.297Z,23.98
2023-03-02T10:54:44.639Z,20.23
2023-03-02T10:59:49.281Z,19.80
2023-03-02T11:05:15.184Z,19.88
2023-03-02T11:10:32.010Z,23.17
2023-03-02T11:15:43.982Z,21.52
2023-03-02T11:20:50.712Z,18.98
2023-03-02T11:25:57.302Z,18.83
2023-03-02T11:31:00.675Z,17.48
2023-03-02T11:36:19.128Z,16.58
2023-03-02T11:41:25.024Z,18.30
2023-03-02T11:46:33.135Z,19.75
2023-03-02T11:51:50.036Z,17.88
2023-03-02T11:56:55.695Z,17.80
2023-03-02T12:01:59.772Z,15.18
2023-03-02T12:07:15.585Z,16.30
2023-03-02T12:12:44.528Z,17.27
2023-03-02T12:17:46.310Z,16.90
2023-03-02T12:22:48.320Z,13.48
2023-03-02T12:27:52.677Z,15.38
2023-03-02T12:33:05.195Z,20.45
2023-03-02T12:38:20.104Z,16.67
2023-03-02T12:43:30.785Z,17.77
2023-03-02T12:48:49.269Z,19.65
2023-03-02T12:54:13.660Z,17.10
2023-03-02T12:59:26.965Z,14.52
2023-03-02T13:04:29.092Z,18.75
2023-03-02T13:09:31.161Z,14.05
2023-03-02T13:14:33.440Z,15.10
2023-03-02T13:19:35.597Z,15.10
2023-03-02T13:25:00.525Z,14.80
2023-03-02T13:30:23.050Z,14.98
2023-03-02T13:35:28.413Z,14.95
2023-03-02T13:40:40.205Z,17.73
2023-03-02T13:46:14.155Z,10.90
2023-03-02T13:51:18.629Z,13.23
2023-03-02T13:56:22.784Z,13.25
2023-03-02T14:01:24.886Z,13.55
2023-03-02T14:06:26.894Z,15.35
2023-03-02T14:11:35.128Z,13.02
2023-03-02T14:16:37.277Z,16.10
2023-03-02T14:21:39.408Z,15.27
2023-03-02T14:26:47.495Z,14.00
2023-03-02T14:31:49.545Z,14.35
2023-03-02T14:36:54.439Z,13.63
2023-03-02T14:41:56.614Z,12.32
2023-03-02T14:46:59.995Z,19.08
2023-03-02T14:52:15.308Z,20.83
2023-03-02T14:57:20.340Z,20.10
2023-03-02T15:02:26.056Z,15.80
2023-03-02T15:07:28.836Z,18.00
2023-03-02T15:12:30.737Z,20.77
2023-03-02T15:17:32.516Z,14.93
2023-03-02T15:22:34.941Z,18.95
2023-03-02T15:27:37.360Z,24.75
2023-03-02T15:32:39.251Z,20.08
2023-03-02T15:37:41.354Z,23.52
2023-03-02T15:42:43.901Z,25.17
2023-03-02T15:47:45.695Z,21.88
2023-03-02T15:52:47.855Z,29.23
2023-03-02T15:57:49.827Z,24.63
2023-03-02T16:02:51.718Z,24.00
2023-03-02T16:07:53.538Z,18.33
2023-03-02T16:12:55.657Z,20.80
2023-03-02T16:17:59.053Z,29.20
2023-03-02T16:23:02.453Z,22.83
2023-03-02T16:28:04.808Z,20.88
2023-03-02T16:33:09.971Z,31.35
2023-03-02T16:38:12.039Z,31.95
2023-03-02T16:43:13.880Z,21.95
2023-03-02T16:48:15.726Z,32.88
2023-03-02T16:53:19.573Z,36.75
2023-03-02T16:58:21.726Z,24.50
2023-03-02T17:03:23.563Z,28.88
2023-03-02T17:08:25.613Z,21.02
2023-03-02T17:13:27.787Z,22.42
2023-03-02T17:18:30.684Z,28.63
2023-03-02T17:23:33.823Z,30.75
2023-03-02T17:28:35.820Z,45.78
2023-03-02T17:33:38.321Z,36.63
2023-03-02T17:38:40.502Z,38.03
2023-03-02T17:43:42.913Z,35.92
2023-03-02T17:48:44.922Z,33.75
2023-03-02T17:53:48.788Z,36.95
2023-03-02T17:58:55.186Z,37.20
2023-03-02T18:03:57.831Z,28.63
2023-03-02T18:08:59.864Z,34.35
2023-03-02T18:14:02.086Z,29.05
2023-03-02T18:19:04.033Z,26.13
2023-03-02T18:24:07.012Z,28.65
2023-03-02T18:29:08.875Z,24.55
2023-03-02T18:34:10.788Z,22.83
2023-03-02T18:39:12.860Z,21.40
2023-03-02T18:44:14.641Z,20.73
2023-03-02T18:49:16.503Z,28.02
2023-03-02T18:54:19.307Z,27.38
2023-03-02T18:59:21.125Z,29.70
2023-03-02T19:04:26.438Z,20.42
2023-03-02T19:09:28.679Z,26.48
2023-03-02T19:14:30.955Z,21.27
2023-03-02T19:19:33.247Z,20.13
2023-03-02T19:24:35.851Z,18.98
2023-03-02T19:29:38.818Z,25.02
2023-03-02T19:34:43.156Z,24.42
2023-03-02T19:39:45.197Z,24.15
2023-03-02T19:44:47.197Z,24.95
2023-03-02T19:49:49.064Z,28.92
2023-03-02T19:54:51.026Z,26.77
2023-03-02T19:59:52.920Z,20.30
2023-03-02T20:04:54.613Z,31.38
2023-03-02T20:09:57.163Z,29.92
2023-03-02T20:14:59.273Z,27.00
2023-03-02T20:20:02.213Z,27.35
2023-03-02T20:25:05.183Z,23.80
2023-03-02T20:30:09.043Z,24.58
2023-03-02T20:35:11.988Z,18.38
2023-03-02T20:40:14.837Z,27.60
2023-03-02T20:45:16.781Z,25.88
2023-03-02T20:50:22.467Z,25.15
2023-03-02T20:55:26.838Z,26.15
2023-03-02T21:00:30.711Z,21.95
2023-03-02T21:05:34.424Z,24.52
2023-03-02T21:10:38.885Z,19.25
2023-03-02T21:15:41.225Z,25.40
2023-03-02T21:20:43.216Z,25.13
2023-03-02T21:25:45.010Z,20.83
2023-03-02T21:30:46.983Z,20.25
2023-03-02T21:35:48.844Z,29.30
2023-03-02T21:40:50.749Z,23.67
2023-03-02T21:45:52.572Z,27.52
2023-03-02T21:50:54.794Z,35.42
2023-03-02T21:55:56.971Z,25.35
2023-03-02T22:00:58.672Z,22.77
2023-03-02T22:06:00.566Z,25.17
2023-03-02T22:11:02.653Z,19.10
2023-03-02T22:16:18.766Z,27.08
2023-03-02T22:21:48.662Z,28.58
2023-03-02T22:27:16.495Z,28.33
2023-03-02T22:32:21.854Z,24.50
2023-03-02T22:37:34.125Z,39.92
2023-03-02T22:42:36.249Z,27.95
2023-03-02T22:47:42.879Z,29.50
2023-03-02T22:52:45.308Z,27.67
2023-03-02T22:57:47.451Z,29.52
2023-03-02T23:02:50.007Z,28.15
2023-03-02T23:08:11.796Z,25.05
2023-03-02T23:13:16.839Z,26.90
2023-03-02T23:18:28.541Z,27.13
2023-03-02T23:23:31.157Z,27.70
2023-03-02T23:28:33.153Z,28.67
2023-03-02T23:33:34.960Z,28.38
2023-03-02T23:38:37.389Z,33.70
2023-03-02T23:43:39.382Z,36.22
2023-03-02T23:48:42.430Z,33.25
2023-03-02T23:53:44.854Z,39.28
2023-03-02T23:58:46.842Z,28.55
